sensor_id;sensor_type;location;lat;lon;timestamp;P1;durP1;ratioP1;P2;durP2;ratioP2
14394;SDS011;7282;49.204;10.652;2023-05-14T00:03:58;10.63;;;9.63;;
14394;SDS011;7282;49.204;10.652;2023-05-14T00:06:24;11.13;;;10.03;;
14394;SDS011;7282;49.204;10.652;2023-05-14T00:08:51;11.67;;;10.47;;
14394;SDS011;7282;49.204;10.652;2023-05-14T00:11:18;10.97;;;9.97;;
14394;SDS011;7282;49.204;10.652;2023-05-14T00:13:44;11.60;;;10.50;;
14394;SDS011;7282;49.204;10.652;2023-05-14T00:16:11;10.63;;;9.60;;
14394;SDS011;7282;49.204;10.652;2023-05-14T00:18:38;10.60;;;9.60;;
14394;SDS011;7282;49.204;10.652;2023-05-14T00:21:05;10.57;;;9.47;;
14394;SDS011;7282;49.204;10.652;2023-05-14T00:23:31;10.83;;;9.80;;
14394;SDS011;7282;49.204;10.652;2023-05-14T00:25:58;10.10;;;9.10;;
14394;SDS011;7282;49.204;10.652;2023-05-14T00:28:25;11.00;;;9.90;;
14394;SDS011;7282;49.204;10.652;2023-05-14T00:30:51;10.60;;;9.60;;
14394;SDS011;7282;49.204;10.652;2023-05-14T00:33:18;11.40;;;10.23;;
14394;SDS011;7282;49.204;10.652;2023-05-14T00:35:45;10.80;;;9.80;;
14394;SDS011;7282;49.204;10.652;2023-05-14T00:38:12;10.77;;;9.70;;
14394;SDS011;7282;49.204;10.652;2023-05-14T00:40:40;11.33;;;10.13;;
14394;SDS011;7282;49.204;10.652;2023-05-14T00:43:09;12.07;;;10.87;;
14394;SDS011;7282;49.204;10.652;2023-05-14T00:45:36;12.17;;;10.87;;
14394;SDS011;7282;49.204;10.652;2023-05-14T00:48:03;12.00;;;10.80;;
14394;SDS011;7282;49.204;10.652;2023-05-14T00:50:29;12.63;;;11.33;;
14394;SDS011;7282;49.204;10.652;2023-05-14T00:52:56;11.43;;;10.33;;
14394;SDS011;7282;49.204;10.652;2023-05-14T00:55:23;11.67;;;10.47;;
14394;SDS011;7282;49.204;10.652;2023-05-14T00:57:50;11.63;;;10.43;;
14394;SDS011;7282;49.204;10.652;2023-05-14T01:00:17;12.23;;;10.83;;
14394;SDS011;7282;49.204;10.652;2023-05-14T01:02:44;11.87;;;10.67;;
14394;SDS011;7282;49.204;10.652;2023-05-14T01:05:11;11.90;;;10.70;;
14394;SDS011;7282;49.204;10.652;2023-05-14T01:07:50;11.47;;;10.37;;
14394;SDS011;7282;49.204;10.652;2023-05-14T01:13:06;12.27;;;11.13;;
14394;SDS011;7282;49.204;10.652;2023-05-14T01:15:33;12.67;;;11.40;;
14394;SDS011;7282;49.204;10.652;2023-05-14T01:18:04;12.03;;;10.83;;
14394;SDS011;7282;49.204;10.652;2023-05-14T01:20:31;12.53;;;10.97;;
14394;SDS011;7282;49.204;10.652;2023-05-14T01:22:58;12.57;;;11.33;;
14394;SDS011;7282;49.204;10.652;2023-05-14T01:25:25;12.03;;;10.83;;
14394;SDS011;7282;49.204;10.652;2023-05-14T01:27:56;12.27;;;10.97;;
14394;SDS011;7282;49.204;10.652;2023-05-14T01:30:21;13.13;;;11.83;;
14394;SDS011;7282;49.204;10.652;2023-05-14T01:32:50;12.00;;;10.80;;
14394;SDS011;7282;49.204;10.652;2023-05-14T01:35:17;12.60;;;11.20;;
14394;SDS011;7282;49.204;10.652;2023-05-14T01:37:44;12.13;;;10.60;;
14394;SDS011;7282;49.204;10.652;2023-05-14T01:40:11;12.37;;;11.07;;
14394;SDS011;7282;49.204;10.652;2023-05-14T01:42:39;13.10;;;11.80;;
14394;SDS011;7282;49.204;10.652;2023-05-14T01:45:06;13.17;;;11.87;;
14394;SDS011;7282;49.204;10.652;2023-05-14T01:47:33;15.67;;;13.53;;
14394;SDS011;7282;49.204;10.652;2023-05-14T01:50:00;14.73;;;13.07;;
14394;SDS011;7282;49.204;10.652;2023-05-14T01:52:27;12.50;;;11.30;;
14394;SDS011;7282;49.204;10.652;2023-05-14T01:54:53;13.97;;;12.57;;
14394;SDS011;7282;49.204;10.652;2023-05-14T01:57:20;13.73;;;12.23;;
14394;SDS011;7282;49.204;10.652;2023-05-14T01:59:47;14.07;;;12.67;;
14394;SDS011;7282;49.204;10.652;2023-05-14T02:02:13;15.13;;;12.87;;
14394;SDS011;7282;49.204;10.652;2023-05-14T02:04:40;14.40;;;12.90;;
14394;SDS011;7282;49.204;10.652;2023-05-14T02:07:07;15.27;;;13.73;;
14394;SDS011;7282;49.204;10.652;2023-05-14T02:09:33;14.40;;;12.90;;
14394;SDS011;7282;49.204;10.652;2023-05-14T02:12:01;15.00;;;13.40;;
14394;SDS011;7282;49.204;10.652;2023-05-14T02:14:27;14.73;;;12.80;;
14394;SDS011;7282;49.204;10.652;2023-05-14T02:16:54;16.80;;;14.13;;
14394;SDS011;7282;49.204;10.652;2023-05-14T02:19:21;16.23;;;13.73;;
14394;SDS011;7282;49.204;10.652;2023-05-14T02:21:48;14.43;;;13.00;;
14394;SDS011;7282;49.204;10.652;2023-05-14T02:24:14;15.57;;;14.03;;
14394;SDS011;7282;49.204;10.652;2023-05-14T02:26:41;14.73;;;13.20;;
14394;SDS011;7282;49.204;10.652;2023-05-14T02:29:08;13.67;;;12.27;;
14394;SDS011;7282;49.204;10.652;2023-05-14T02:31:34;14.03;;;12.53;;
14394;SDS011;7282;49.204;10.652;2023-05-14T02:34:01;14.53;;;12.60;;
14394;SDS011;7282;49.204;10.652;2023-05-14T02:36:28;14.67;;;12.67;;
14394;SDS011;7282;49.204;10.652;2023-05-14T02:38:57;13.97;;;12.57;;
14394;SDS011;7282;49.204;10.652;2023-05-14T02:41:23;13.60;;;12.23;;
14394;SDS011;7282;49.204;10.652;2023-05-14T02:43:50;14.47;;;12.97;;
14394;SDS011;7282;49.204;10.652;2023-05-14T02:46:17;13.57;;;12.17;;
14394;SDS011;7282;49.204;10.652;2023-05-14T02:48:44;14.03;;;12.53;;
14394;SDS011;7282;49.204;10.652;2023-05-14T02:51:11;14.43;;;12.93;;
14394;SDS011;7282;49.204;10.652;2023-05-14T02:53:37;13.83;;;12.30;;
14394;SDS011;7282;49.204;10.652;2023-05-14T02:56:04;13.27;;;12.07;;
14394;SDS011;7282;49.204;10.652;2023-05-14T02:58:31;14.37;;;12.80;;
14394;SDS011;7282;49.204;10.652;2023-05-14T03:00:58;13.23;;;11.83;;
14394;SDS011;7282;49.204;10.652;2023-05-14T03:03:25;14.13;;;12.73;;
14394;SDS011;7282;49.204;10.652;2023-05-14T03:05:51;14.00;;;12.50;;
14394;SDS011;7282;49.204;10.652;2023-05-14T03:08:18;14.20;;;12.80;;
14394;SDS011;7282;49.204;10.652;2023-05-14T03:10:45;13.47;;;12.03;;
14394;SDS011;7282;49.204;10.652;2023-05-14T03:13:11;14.40;;;12.90;;
14394;SDS011;7282;49.204;10.652;2023-05-14T03:15:40;13.53;;;12.23;;
14394;SDS011;7282;49.204;10.652;2023-05-14T03:18:06;13.13;;;11.83;;
14394;SDS011;7282;49.204;10.652;2023-05-14T03:20:33;13.10;;;11.80;;
14394;SDS011;7282;49.204;10.652;2023-05-14T03:23:00;13.27;;;11.97;;
14394;SDS011;7282;49.204;10.652;2023-05-14T03:25:27;13.77;;;12.47;;
14394;SDS011;7282;49.204;10.652;2023-05-14T03:27:53;13.50;;;12.07;;
14394;SDS011;7282;49.204;10.652;2023-05-14T03:30:20;13.57;;;12.13;;
14394;SDS011;7282;49.204;10.652;2023-05-14T03:32:47;15.40;;;13.30;;
14394;SDS011;7282;49.204;10.652;2023-05-14T03:35:13;14.50;;;13.00;;
14394;SDS011;7282;49.204;10.652;2023-05-14T03:37:40;13.83;;;12.53;;
14394;SDS011;7282;49.204;10.652;2023-05-14T03:40:07;14.47;;;12.97;;
14394;SDS011;7282;49.204;10.652;2023-05-14T03:42:34;14.00;;;12.50;;
14394;SDS011;7282;49.204;10.652;2023-05-14T03:45:01;13.37;;;12.07;;
14394;SDS011;7282;49.204;10.652;2023-05-14T03:47:27;13.23;;;11.87;;
14394;SDS011;7282;49.204;10.652;2023-05-14T03:49:54;16.60;;;12.47;;
14394;SDS011;7282;49.204;10.652;2023-05-14T03:52:21;13.53;;;11.57;;
14394;SDS011;7282;49.204;10.652;2023-05-14T03:54:48;14.07;;;12.67;;
14394;SDS011;7282;49.204;10.652;2023-05-14T03:57:14;13.77;;;12.33;;
14394;SDS011;7282;49.204;10.652;2023-05-14T03:59:41;13.00;;;11.70;;
14394;SDS011;7282;49.204;10.652;2023-05-14T04:02:08;13.27;;;11.97;;
14394;SDS011;7282;49.204;10.652;2023-05-14T04:04:35;13.50;;;12.10;;
14394;SDS011;7282;49.204;10.652;2023-05-14T04:07:01;13.07;;;11.47;;
14394;SDS011;7282;49.204;10.652;2023-05-14T04:09:28;13.43;;;12.17;;
14394;SDS011;7282;49.204;10.652;2023-05-14T04:11:55;14.07;;;11.87;;
14394;SDS011;7282;49.204;10.652;2023-05-14T04:14:22;13.00;;;11.60;;
14394;SDS011;7282;49.204;10.652;2023-05-14T04:16:48;13.07;;;11.87;;
14394;SDS011;7282;49.204;10.652;2023-05-14T04:19:15;13.00;;;11.63;;
14394;SDS011;7282;49.204;10.652;2023-05-14T04:21:42;12.10;;;10.80;;
14394;SDS011;7282;49.204;10.652;2023-05-14T04:24:08;13.83;;;12.43;;
14394;SDS011;7282;49.204;10.652;2023-05-14T04:26:35;13.60;;;12.20;;
14394;SDS011;7282;49.204;10.652;2023-05-14T04:29:02;13.00;;;11.70;;
14394;SDS011;7282;49.204;10.652;2023-05-14T04:31:29;13.63;;;12.23;;
14394;SDS011;7282;49.204;10.652;2023-05-14T04:33:56;13.40;;;12.10;;
14394;SDS011;7282;49.204;10.652;2023-05-14T04:36:23;15.37;;;13.43;;
14394;SDS011;7282;49.204;10.652;2023-05-14T04:38:50;14.00;;;12.70;;
14394;SDS011;7282;49.204;10.652;2023-05-14T04:41:16;13.43;;;12.13;;
14394;SDS011;7282;49.204;10.652;2023-05-14T04:43:43;13.97;;;12.57;;
14394;SDS011;7282;49.204;10.652;2023-05-14T04:46:10;14.40;;;12.87;;
14394;SDS011;7282;49.204;10.652;2023-05-14T04:48:36;13.70;;;12.30;;
14394;SDS011;7282;49.204;10.652;2023-05-14T04:51:03;13.87;;;12.47;;
14394;SDS011;7282;49.204;10.652;2023-05-14T04:53:30;14.03;;;12.63;;
14394;SDS011;7282;49.204;10.652;2023-05-14T04:55:56;13.17;;;11.70;;
14394;SDS011;7282;49.204;10.652;2023-05-14T04:58:23;12.73;;;11.33;;
14394;SDS011;7282;49.204;10.652;2023-05-14T05:00:50;12.63;;;11.30;;
14394;SDS011;7282;49.204;10.652;2023-05-14T05:03:16;12.80;;;11.60;;
14394;SDS011;7282;49.204;10.652;2023-05-14T05:05:43;13.63;;;12.23;;
14394;SDS011;7282;49.204;10.652;2023-05-14T05:08:10;12.90;;;11.67;;
14394;SDS011;7282;49.204;10.652;2023-05-14T05:10:37;13.57;;;12.27;;
14394;SDS011;7282;49.204;10.652;2023-05-14T05:13:03;12.57;;;11.27;;
14394;SDS011;7282;49.204;10.652;2023-05-14T05:15:30;13.23;;;11.83;;
14394;SDS011;7282;49.204;10.652;2023-05-14T05:17:57;13.00;;;11.63;;
14394;SDS011;7282;49.204;10.652;2023-05-14T05:20:23;12.33;;;11.17;;
14394;SDS011;7282;49.204;10.652;2023-05-14T05:22:50;13.80;;;12.13;;
14394;SDS011;7282;49.204;10.652;2023-05-14T05:25:17;13.17;;;11.87;;
14394;SDS011;7282;49.204;10.652;2023-05-14T05:27:44;12.23;;;11.13;;
14394;SDS011;7282;49.204;10.652;2023-05-14T05:30:11;13.23;;;11.80;;
14394;SDS011;7282;49.204;10.652;2023-05-14T05:32:38;12.63;;;11.33;;
14394;SDS011;7282;49.204;10.652;2023-05-14T05:35:05;12.10;;;10.90;;
14394;SDS011;7282;49.204;10.652;2023-05-14T05:37:32;13.17;;;11.87;;
14394;SDS011;7282;49.204;10.652;2023-05-14T05:39:58;14.23;;;12.10;;
14394;SDS011;7282;49.204;10.652;2023-05-14T05:42:25;12.80;;;11.33;;
14394;SDS011;7282;49.204;10.652;2023-05-14T05:44:52;13.23;;;11.90;;
14394;SDS011;7282;49.204;10.652;2023-05-14T05:47:18;12.07;;;10.97;;
14394;SDS011;7282;49.204;10.652;2023-05-14T05:49:45;11.47;;;10.47;;
14394;SDS011;7282;49.204;10.652;2023-05-14T05:52:12;13.53;;;11.10;;
14394;SDS011;7282;49.204;10.652;2023-05-14T05:54:39;12.77;;;11.47;;
14394;SDS011;7282;49.204;10.652;2023-05-14T05:57:05;13.00;;;11.70;;
14394;SDS011;7282;49.204;10.652;2023-05-14T05:59:32;12.70;;;11.40;;
14394;SDS011;7282;49.204;10.652;2023-05-14T06:01:59;13.40;;;12.10;;
14394;SDS011;7282;49.204;10.652;2023-05-14T06:04:25;13.10;;;11.80;;
14394;SDS011;7282;49.204;10.652;2023-05-14T06:06:52;12.33;;;11.20;;
14394;SDS011;7282;49.204;10.652;2023-05-14T06:09:19;12.73;;;11.53;;
14394;SDS011;7282;49.204;10.652;2023-05-14T06:11:46;13.20;;;11.90;;
14394;SDS011;7282;49.204;10.652;2023-05-14T06:14:12;12.40;;;11.20;;
14394;SDS011;7282;49.204;10.652;2023-05-14T06:16:39;12.97;;;11.60;;
14394;SDS011;7282;49.204;10.652;2023-05-14T06:19:06;11.73;;;10.63;;
14394;SDS011;7282;49.204;10.652;2023-05-14T06:21:33;12.67;;;11.47;;
14394;SDS011;7282;49.204;10.652;2023-05-14T06:24:00;12.40;;;11.20;;
14394;SDS011;7282;49.204;10.652;2023-05-14T06:26:26;11.70;;;10.60;;
14394;SDS011;7282;49.204;10.652;2023-05-14T06:28:53;10.80;;;9.80;;
14394;SDS011;7282;49.204;10.652;2023-05-14T06:31:20;11.53;;;10.37;;
14394;SDS011;7282;49.204;10.652;2023-05-14T06:33:46;11.17;;;10.17;;
14394;SDS011;7282;49.204;10.652;2023-05-14T06:36:13;11.17;;;10.07;;
14394;SDS011;7282;49.204;10.652;2023-05-14T06:38:40;11.37;;;10.27;;
14394;SDS011;7282;49.204;10.652;2023-05-14T06:41:07;11.07;;;9.70;;
14394;SDS011;7282;49.204;10.652;2023-05-14T06:43:33;11.93;;;10.73;;
14394;SDS011;7282;49.204;10.652;2023-05-14T06:46:00;12.10;;;10.90;;
14394;SDS011;7282;49.204;10.652;2023-05-14T06:48:27;11.67;;;10.00;;
14394;SDS011;7282;49.204;10.652;2023-05-14T06:50:54;11.10;;;10.10;;
14394;SDS011;7282;49.204;10.652;2023-05-14T06:53:21;11.53;;;10.40;;
14394;SDS011;7282;49.204;10.652;2023-05-14T06:55:47;11.30;;;10.07;;
14394;SDS011;7282;49.204;10.652;2023-05-14T06:58:14;11.33;;;10.30;;
14394;SDS011;7282;49.204;10.652;2023-05-14T07:00:41;10.97;;;9.97;;
14394;SDS011;7282;49.204;10.652;2023-05-14T07:03:08;10.80;;;9.80;;
14394;SDS011;7282;49.204;10.652;2023-05-14T07:05:35;11.70;;;10.60;;
14394;SDS011;7282;49.204;10.652;2023-05-14T07:08:02;10.47;;;9.47;;
14394;SDS011;7282;49.204;10.652;2023-05-14T07:10:28;11.47;;;10.43;;
14394;SDS011;7282;49.204;10.652;2023-05-14T07:12:55;10.20;;;9.30;;
14394;SDS011;7282;49.204;10.652;2023-05-14T07:15:22;10.17;;;9.27;;
14394;SDS011;7282;49.204;10.652;2023-05-14T07:17:49;10.97;;;9.97;;
14394;SDS011;7282;49.204;10.652;2023-05-14T07:20:16;10.40;;;9.40;;
14394;SDS011;7282;49.204;10.652;2023-05-14T07:22:42;9.97;;;8.97;;
14394;SDS011;7282;49.204;10.652;2023-05-14T07:25:09;9.77;;;8.80;;
14394;SDS011;7282;49.204;10.652;2023-05-14T07:27:36;10.10;;;9.20;;
14394;SDS011;7282;49.204;10.652;2023-05-14T07:30:02;9.30;;;8.40;;
14394;SDS011;7282;49.204;10.652;2023-05-14T07:32:29;10.33;;;9.33;;
14394;SDS011;7282;49.204;10.652;2023-05-14T07:34:56;9.00;;;8.10;;
14394;SDS011;7282;49.204;10.652;2023-05-14T07:37:23;9.37;;;8.43;;
14394;SDS011;7282;49.204;10.652;2023-05-14T07:39:51;9.23;;;8.43;;
14394;SDS011;7282;49.204;10.652;2023-05-14T07:42:18;9.27;;;8.43;;
14394;SDS011;7282;49.204;10.652;2023-05-14T07:44:45;9.33;;;8.53;;
14394;SDS011;7282;49.204;10.652;2023-05-14T07:47:11;8.33;;;7.60;;
14394;SDS011;7282;49.204;10.652;2023-05-14T07:49:38;8.83;;;8.03;;
14394;SDS011;7282;49.204;10.652;2023-05-14T07:52:05;8.83;;;8.03;;
14394;SDS011;7282;49.204;10.652;2023-05-14T07:54:31;9.73;;;8.73;;
14394;SDS011;7282;49.204;10.652;2023-05-14T07:56:58;8.53;;;7.73;;
14394;SDS011;7282;49.204;10.652;2023-05-14T07:59:25;9.33;;;8.43;;
14394;SDS011;7282;49.204;10.652;2023-05-14T08:01:52;8.87;;;8.07;;
14394;SDS011;7282;49.204;10.652;2023-05-14T08:04:18;8.80;;;8.00;;
14394;SDS011;7282;49.204;10.652;2023-05-14T08:06:45;9.30;;;8.40;;
14394;SDS011;7282;49.204;10.652;2023-05-14T08:09:12;9.40;;;8.57;;
14394;SDS011;7282;49.204;10.652;2023-05-14T08:11:39;8.43;;;7.73;;
14394;SDS011;7282;49.204;10.652;2023-05-14T08:14:05;8.67;;;7.97;;
14394;SDS011;7282;49.204;10.652;2023-05-14T08:16:32;8.27;;;7.57;;
14394;SDS011;7282;49.204;10.652;2023-05-14T08:18:59;8.20;;;7.40;;
14394;SDS011;7282;49.204;10.652;2023-05-14T08:21:25;8.37;;;7.67;;
14394;SDS011;7282;49.204;10.652;2023-05-14T08:23:53;9.23;;;8.33;;
14394;SDS011;7282;49.204;10.652;2023-05-14T08:26:19;8.90;;;7.97;;
14394;SDS011;7282;49.204;10.652;2023-05-14T08:28:46;8.40;;;7.60;;
14394;SDS011;7282;49.204;10.652;2023-05-14T08:31:13;8.00;;;7.20;;
14394;SDS011;7282;49.204;10.652;2023-05-14T08:33:40;7.37;;;6.67;;
14394;SDS011;7282;49.204;10.652;2023-05-14T08:36:06;8.20;;;7.50;;
14394;SDS011;7282;49.204;10.652;2023-05-14T08:38:33;7.87;;;7.07;;
14394;SDS011;7282;49.204;10.652;2023-05-14T08:41:00;8.37;;;7.57;;
14394;SDS011;7282;49.204;10.652;2023-05-14T08:43:30;8.10;;;7.40;;
14394;SDS011;7282;49.204;10.652;2023-05-14T08:45:57;7.70;;;7.10;;
14394;SDS011;7282;49.204;10.652;2023-05-14T08:48:24;8.40;;;7.60;;
14394;SDS011;7282;49.204;10.652;2023-05-14T08:50:52;8.17;;;7.40;;
14394;SDS011;7282;49.204;10.652;2023-05-14T08:53:18;7.97;;;7.17;;
14394;SDS011;7282;49.204;10.652;2023-05-14T08:55:45;8.10;;;7.30;;
14394;SDS011;7282;49.204;10.652;2023-05-14T08:58:13;7.57;;;6.87;;
14394;SDS011;7282;49.204;10.652;2023-05-14T09:00:39;8.50;;;7.70;;
14394;SDS011;7282;49.204;10.652;2023-05-14T09:03:07;8.87;;;8.07;;
14394;SDS011;7282;49.204;10.652;2023-05-14T09:05:33;7.93;;;7.13;;
14394;SDS011;7282;49.204;10.652;2023-05-14T09:08:00;8.80;;;7.90;;
14394;SDS011;7282;49.204;10.652;2023-05-14T09:10:27;8.00;;;7.20;;
14394;SDS011;7282;49.204;10.652;2023-05-14T09:12:54;8.03;;;7.27;;
14394;SDS011;7282;49.204;10.652;2023-05-14T09:15:21;8.80;;;7.90;;
14394;SDS011;7282;49.204;10.652;2023-05-14T09:17:48;7.90;;;7.20;;
14394;SDS011;7282;49.204;10.652;2023-05-14T09:20:15;8.50;;;7.67;;
14394;SDS011;7282;49.204;10.652;2023-05-14T09:22:42;7.93;;;7.23;;
14394;SDS011;7282;49.204;10.652;2023-05-14T09:25:09;7.20;;;6.60;;
14394;SDS011;7282;49.204;10.652;2023-05-14T09:27:37;7.40;;;6.80;;
14394;SDS011;7282;49.204;10.652;2023-05-14T09:30:09;7.90;;;7.20;;
14394;SDS011;7282;49.204;10.652;2023-05-14T09:32:39;7.50;;;6.80;;
14394;SDS011;7282;49.204;10.652;2023-05-14T09:35:09;7.43;;;6.70;;
14394;SDS011;7282;49.204;10.652;2023-05-14T09:37:36;7.50;;;6.90;;
14394;SDS011;7282;49.204;10.652;2023-05-14T09:40:06;7.00;;;6.40;;
14394;SDS011;7282;49.204;10.652;2023-05-14T09:42:35;6.70;;;6.10;;
14394;SDS011;7282;49.204;10.652;2023-05-14T09:45:02;6.73;;;6.13;;
14394;SDS011;7282;49.204;10.652;2023-05-14T09:47:30;6.50;;;6.00;;
14394;SDS011;7282;49.204;10.652;2023-05-14T09:49:57;6.00;;;5.50;;
14394;SDS011;7282;49.204;10.652;2023-05-14T09:52:24;5.70;;;5.20;;
14394;SDS011;7282;49.204;10.652;2023-05-14T09:54:51;4.93;;;4.53;;
14394;SDS011;7282;49.204;10.652;2023-05-14T09:57:19;5.30;;;4.80;;
14394;SDS011;7282;49.204;10.652;2023-05-14T09:59:46;6.13;;;5.63;;
14394;SDS011;7282;49.204;10.652;2023-05-14T10:02:19;5.83;;;5.00;;
14394;SDS011;7282;49.204;10.652;2023-05-14T10:04:44;6.27;;;5.77;;
14394;SDS011;7282;49.204;10.652;2023-05-14T10:07:10;6.30;;;5.70;;
14394;SDS011;7282;49.204;10.652;2023-05-14T10:09:38;6.90;;;6.27;;
14394;SDS011;7282;49.204;10.652;2023-05-14T10:12:06;6.03;;;5.53;;
14394;SDS011;7282;49.204;10.652;2023-05-14T10:14:39;6.63;;;6.03;;
14394;SDS011;7282;49.204;10.652;2023-05-14T10:17:02;7.30;;;6.60;;
14394;SDS011;7282;49.204;10.652;2023-05-14T10:19:32;6.40;;;5.73;;
14394;SDS011;7282;49.204;10.652;2023-05-14T10:22:03;5.60;;;5.10;;
14394;SDS011;7282;49.204;10.652;2023-05-14T10:24:30;7.07;;;5.97;;
14394;SDS011;7282;49.204;10.652;2023-05-14T10:26:57;5.70;;;5.20;;
14394;SDS011;7282;49.204;10.652;2023-05-14T10:29:33;5.67;;;5.17;;
14394;SDS011;7282;49.204;10.652;2023-05-14T10:32:04;7.73;;;5.43;;
14394;SDS011;7282;49.204;10.652;2023-05-14T10:34:35;6.37;;;5.80;;
14394;SDS011;7282;49.204;10.652;2023-05-14T10:37:03;6.43;;;5.93;;
14394;SDS011;7282;49.204;10.652;2023-05-14T10:42:22;6.37;;;5.77;;
14394;SDS011;7282;49.204;10.652;2023-05-14T10:44:49;6.73;;;6.13;;
14394;SDS011;7282;49.204;10.652;2023-05-14T10:47:14;6.10;;;5.60;;
14394;SDS011;7282;49.204;10.652;2023-05-14T10:49:43;5.73;;;5.23;;
14394;SDS011;7282;49.204;10.652;2023-05-14T10:52:11;5.90;;;5.33;;
14394;SDS011;7282;49.204;10.652;2023-05-14T10:54:37;6.13;;;5.33;;
14394;SDS011;7282;49.204;10.652;2023-05-14T10:57:08;5.70;;;5.20;;
14394;SDS011;7282;49.204;10.652;2023-05-14T10:59:33;5.47;;;4.97;;
14394;SDS011;7282;49.204;10.652;2023-05-14T11:02:00;5.83;;;5.33;;
14394;SDS011;7282;49.204;10.652;2023-05-14T11:04:30;6.90;;;6.07;;
14394;SDS011;7282;49.204;10.652;2023-05-14T11:06:56;6.00;;;5.50;;
14394;SDS011;7282;49.204;10.652;2023-05-14T11:09:23;6.60;;;6.00;;
14394;SDS011;7282;49.204;10.652;2023-05-14T11:11:51;6.97;;;6.13;;
14394;SDS011;7282;49.204;10.652;2023-05-14T11:14:18;6.53;;;5.93;;
14394;SDS011;7282;49.204;10.652;2023-05-14T11:16:45;5.60;;;5.10;;
14394;SDS011;7282;49.204;10.652;2023-05-14T11:19:12;6.37;;;5.73;;
14394;SDS011;7282;49.204;10.652;2023-05-14T11:21:39;5.73;;;5.17;;
14394;SDS011;7282;49.204;10.652;2023-05-14T11:24:06;5.70;;;5.20;;
14394;SDS011;7282;49.204;10.652;2023-05-14T11:26:33;5.83;;;5.33;;
14394;SDS011;7282;49.204;10.652;2023-05-14T11:29:00;6.00;;;5.43;;
14394;SDS011;7282;49.204;10.652;2023-05-14T11:31:27;5.97;;;5.37;;
14394;SDS011;7282;49.204;10.652;2023-05-14T11:33:54;5.40;;;4.90;;
14394;SDS011;7282;49.204;10.652;2023-05-14T11:36:20;5.50;;;4.70;;
14394;SDS011;7282;49.204;10.652;2023-05-14T11:38:47;5.20;;;4.70;;
14394;SDS011;7282;49.204;10.652;2023-05-14T11:41:16;5.50;;;5.00;;
14394;SDS011;7282;49.204;10.652;2023-05-14T11:43:45;5.00;;;4.60;;
14394;SDS011;7282;49.204;10.652;2023-05-14T11:46:15;4.77;;;4.37;;
14394;SDS011;7282;49.204;10.652;2023-05-14T11:48:40;5.43;;;4.93;;
14394;SDS011;7282;49.204;10.652;2023-05-14T11:51:07;4.67;;;4.27;;
14394;SDS011;7282;49.204;10.652;2023-05-14T11:53:33;5.33;;;4.83;;
14394;SDS011;7282;49.204;10.652;2023-05-14T11:56:01;4.70;;;4.30;;
14394;SDS011;7282;49.204;10.652;2023-05-14T11:58:30;4.90;;;4.50;;
14394;SDS011;7282;49.204;10.652;2023-05-14T12:00:56;5.00;;;4.60;;
14394;SDS011;7282;49.204;10.652;2023-05-14T12:03:23;5.23;;;4.73;;
14394;SDS011;7282;49.204;10.652;2023-05-14T12:05:58;5.13;;;4.63;;
14394;SDS011;7282;49.204;10.652;2023-05-14T12:08:26;5.40;;;4.90;;
14394;SDS011;7282;49.204;10.652;2023-05-14T12:10:53;5.20;;;4.70;;
14394;SDS011;7282;49.204;10.652;2023-05-14T12:13:20;4.93;;;4.53;;
14394;SDS011;7282;49.204;10.652;2023-05-14T12:15:52;4.80;;;4.40;;
14394;SDS011;7282;49.204;10.652;2023-05-14T12:18:16;5.00;;;4.60;;
14394;SDS011;7282;49.204;10.652;2023-05-14T12:20:47;5.37;;;4.90;;
14394;SDS011;7282;49.204;10.652;2023-05-14T12:23:11;5.77;;;5.27;;
14394;SDS011;7282;49.204;10.652;2023-05-14T12:25:38;5.43;;;4.93;;
14394;SDS011;7282;49.204;10.652;2023-05-14T12:28:14;4.87;;;4.47;;
14394;SDS011;7282;49.204;10.652;2023-05-14T12:30:39;5.07;;;4.67;;
14394;SDS011;7282;49.204;10.652;2023-05-14T12:33:06;5.17;;;4.67;;
14394;SDS011;7282;49.204;10.652;2023-05-14T12:35:33;6.13;;;5.20;;
14394;SDS011;7282;49.204;10.652;2023-05-14T12:38:02;5.03;;;4.53;;
14394;SDS011;7282;49.204;10.652;2023-05-14T12:40:28;4.93;;;4.47;;
14394;SDS011;7282;49.204;10.652;2023-05-14T12:42:55;5.30;;;4.70;;
14394;SDS011;7282;49.204;10.652;2023-05-14T12:45:22;5.37;;;4.57;;
14394;SDS011;7282;49.204;10.652;2023-05-14T12:47:49;4.63;;;4.13;;
14394;SDS011;7282;49.204;10.652;2023-05-14T12:50:16;5.60;;;5.00;;
14394;SDS011;7282;49.204;10.652;2023-05-14T12:52:42;5.90;;;5.30;;
14394;SDS011;7282;49.204;10.652;2023-05-14T12:55:09;5.47;;;4.77;;
14394;SDS011;7282;49.204;10.652;2023-05-14T12:57:36;5.53;;;5.07;;
14394;SDS011;7282;49.204;10.652;2023-05-14T13:00:03;4.60;;;4.20;;
14394;SDS011;7282;49.204;10.652;2023-05-14T13:02:33;5.00;;;4.60;;
14394;SDS011;7282;49.204;10.652;2023-05-14T13:04:59;4.50;;;4.17;;
14394;SDS011;7282;49.204;10.652;2023-05-14T13:07:27;5.20;;;4.80;;
14394;SDS011;7282;49.204;10.652;2023-05-14T13:09:57;4.97;;;4.57;;
14394;SDS011;7282;49.204;10.652;2023-05-14T13:12:24;4.73;;;4.27;;
14394;SDS011;7282;49.204;10.652;2023-05-14T13:14:51;4.80;;;4.40;;
14394;SDS011;7282;49.204;10.652;2023-05-14T13:17:18;4.70;;;4.30;;
14394;SDS011;7282;49.204;10.652;2023-05-14T13:19:44;4.80;;;4.40;;
14394;SDS011;7282;49.204;10.652;2023-05-14T13:22:11;5.17;;;4.67;;
14394;SDS011;7282;49.204;10.652;2023-05-14T13:24:39;4.50;;;4.10;;
14394;SDS011;7282;49.204;10.652;2023-05-14T13:27:06;4.80;;;4.40;;
14394;SDS011;7282;49.204;10.652;2023-05-14T13:29:32;4.53;;;4.13;;
14394;SDS011;7282;49.204;10.652;2023-05-14T13:31:59;4.10;;;3.80;;
14394;SDS011;7282;49.204;10.652;2023-05-14T13:34:26;4.83;;;4.17;;
14394;SDS011;7282;49.204;10.652;2023-05-14T13:36:52;4.70;;;4.17;;
14394;SDS011;7282;49.204;10.652;2023-05-14T13:39:19;3.90;;;3.60;;
14394;SDS011;7282;49.204;10.652;2023-05-14T13:41:47;4.57;;;4.17;;
14394;SDS011;7282;49.204;10.652;2023-05-14T13:44:15;4.77;;;4.37;;
14394;SDS011;7282;49.204;10.652;2023-05-14T13:46:42;4.60;;;4.20;;
14394;SDS011;7282;49.204;10.652;2023-05-14T13:49:09;5.53;;;5.03;;
14394;SDS011;7282;49.204;10.652;2023-05-14T13:51:36;5.00;;;4.60;;
14394;SDS011;7282;49.204;10.652;2023-05-14T13:54:02;5.17;;;4.67;;
14394;SDS011;7282;49.204;10.652;2023-05-14T13:56:29;5.20;;;4.80;;
14394;SDS011;7282;49.204;10.652;2023-05-14T13:58:56;5.33;;;4.87;;
14394;SDS011;7282;49.204;10.652;2023-05-14T14:01:22;4.37;;;3.97;;
14394;SDS011;7282;49.204;10.652;2023-05-14T14:03:49;5.10;;;4.37;;
14394;SDS011;7282;49.204;10.652;2023-05-14T14:06:16;4.13;;;3.83;;
14394;SDS011;7282;49.204;10.652;2023-05-14T14:08:42;4.63;;;4.23;;
14394;SDS011;7282;49.204;10.652;2023-05-14T14:11:09;4.77;;;4.37;;
14394;SDS011;7282;49.204;10.652;2023-05-14T14:13:38;4.40;;;4.00;;
14394;SDS011;7282;49.204;10.652;2023-05-14T14:16:05;4.63;;;4.10;;
14394;SDS011;7282;49.204;10.652;2023-05-14T14:18:32;4.50;;;4.20;;
14394;SDS011;7282;49.204;10.652;2023-05-14T14:20:59;4.90;;;4.50;;
14394;SDS011;7282;49.204;10.652;2023-05-14T14:23:26;5.43;;;4.97;;
14394;SDS011;7282;49.204;10.652;2023-05-14T14:25:52;5.17;;;4.77;;
14394;SDS011;7282;49.204;10.652;2023-05-14T14:28:19;5.57;;;5.07;;
14394;SDS011;7282;49.204;10.652;2023-05-14T14:30:46;5.30;;;4.73;;
14394;SDS011;7282;49.204;10.652;2023-05-14T14:33:12;5.00;;;4.50;;
14394;SDS011;7282;49.204;10.652;2023-05-14T14:35:39;4.73;;;4.33;;
14394;SDS011;7282;49.204;10.652;2023-05-14T14:38:06;4.53;;;4.13;;
14394;SDS011;7282;49.204;10.652;2023-05-14T14:40:33;4.50;;;4.10;;
14394;SDS011;7282;49.204;10.652;2023-05-14T14:43:00;4.57;;;4.17;;